Roseland, California
Current Conditions -  °F | °C
As of 7:53 PM on Saturday 22 Nov 2014 (Local Time) from KSTS Reporting Station
Clear Clear  
Wind Chill: 51°   Ceiling: Unl
Heat Index: 51°   Visibility: 10mi
Dew Point: 45°   Wind: 5mph
Humidity: 80%   Direction: 30°NNE
Pressure: 30.21"   Gusts: NA
Location:  38.3942°N, 122.743°W
Report Text: KSTS 230353Z AUTO 03004KT 10SM CLR 11/07 A3021 RMK AO2 SLP222 T01060072
Loading
Personal Weather Stations






























Interactive Weather Map New forecast layout! Learn more

10-Day Weather Forecast

Advertisements
Track Severe Weather on mobile